createdAt,value
2023-03-29T00:00:41.227Z,100.00
2023-03-29T00:03:19.151Z,100.00
2023-03-29T00:05:47.588Z,100.00
2023-03-29T00:08:17.491Z,100.00
2023-03-29T00:10:49.110Z,100.00
2023-03-29T00:13:17.630Z,100.00
2023-03-29T00:15:47.077Z,100.00
2023-03-29T00:18:18.476Z,100.00
2023-03-29T00:20:46.992Z,99.96
2023-03-29T00:23:27.746Z,100.00
2023-03-29T00:25:56.750Z,99.83
2023-03-29T00:28:26.190Z,98.99
2023-03-29T00:31:18.621Z,99.88
2023-03-29T00:33:52.405Z,99.46
2023-03-29T00:36:22.321Z,99.29
2023-03-29T00:38:54.893Z,99.58
2023-03-29T00:41:23.314Z,98.60
2023-03-29T00:43:57.770Z,99.15
2023-03-29T00:46:27.860Z,99.90
2023-03-29T00:49:03.872Z,99.99
2023-03-29T00:51:35.420Z,99.96
2023-03-29T00:54:05.846Z,100.00
2023-03-29T00:56:47.078Z,100.00
2023-03-29T00:59:22.375Z,100.00
2023-03-29T01:01:57.423Z,100.00
2023-03-29T01:04:36.490Z,100.00
2023-03-29T01:07:13.790Z,100.00
2023-03-29T01:09:45.956Z,100.00
2023-03-29T01:12:25.508Z,100.00
2023-03-29T01:15:10.274Z,100.00
2023-03-29T01:18:25.990Z,100.00
2023-03-29T01:20:51.110Z,100.00
2023-03-29T01:23:22.414Z,100.00
2023-03-29T01:26:27.210Z,100.00
2023-03-29T01:29:12.919Z,100.00
2023-03-29T01:31:48.262Z,100.00
2023-03-29T01:34:42.290Z,100.00
2023-03-29T01:37:37.772Z,100.00
2023-03-29T01:40:16.246Z,100.00
2023-03-29T01:42:59.008Z,100.00
2023-03-29T01:45:52.583Z,100.00
2023-03-29T01:48:27.041Z,100.00
2023-03-29T01:51:05.263Z,100.00
2023-03-29T01:53:42.657Z,99.73
2023-03-29T01:56:15.164Z,99.35
2023-03-29T01:58:49.862Z,99.13
2023-03-29T02:02:02.483Z,98.70
2023-03-29T02:04:58.542Z,98.79
2023-03-29T02:07:31.234Z,98.32
2023-03-29T02:10:03.297Z,97.26
2023-03-29T02:12:34.272Z,97.04
2023-03-29T02:15:07.127Z,96.80
2023-03-29T02:17:35.771Z,96.09
2023-03-29T02:20:25.846Z,95.95
2023-03-29T02:23:04.667Z,96.44
2023-03-29T02:25:33.441Z,96.91
2023-03-29T02:28:13.339Z,96.69
2023-03-29T02:30:53.640Z,97.09
2023-03-29T02:33:34.713Z,96.84
2023-03-29T02:36:38.399Z,97.10
2023-03-29T02:42:49.498Z,96.15
2023-03-29T02:45:44.653Z,96.25
2023-03-29T02:48:23.500Z,96.22
2023-03-29T02:50:56.579Z,96.36
2023-03-29T02:53:32.176Z,96.73
2023-03-29T02:56:02.384Z,97.30
2023-03-29T02:58:31.836Z,97.40
2023-03-29T03:01:02.579Z,97.54
2023-03-29T03:03:32.072Z,96.75
2023-03-29T03:06:06.138Z,96.65
2023-03-29T03:08:36.338Z,96.81
2023-03-29T03:11:22.663Z,95.92
2023-03-29T03:13:54.010Z,94.79
2023-03-29T03:16:43.270Z,93.56
2023-03-29T03:19:23.925Z,93.28
2023-03-29T03:21:54.504Z,93.15
2023-03-29T03:24:24.131Z,93.17
2023-03-29T03:26:52.197Z,93.01
2023-03-29T03:29:20.514Z,93.14
2023-03-29T03:32:09.047Z,93.52
2023-03-29T03:35:05.731Z,93.56
2023-03-29T03:37:34.246Z,93.36
2023-03-29T03:40:04.903Z,93.81
2023-03-29T03:42:33.348Z,93.35
2023-03-29T03:45:02.195Z,93.24
2023-03-29T03:47:40.154Z,93.32
2023-03-29T03:50:38.398Z,93.16
2023-03-29T03:53:07.296Z,93.46
2023-03-29T03:55:56.129Z,93.21
2023-03-29T03:58:30.188Z,93.46
2023-03-29T04:00:59.419Z,93.44
2023-03-29T04:03:39.300Z,93.55
2023-03-29T04:06:10.024Z,94.29
2023-03-29T04:08:56.915Z,94.93
2023-03-29T04:11:39.476Z,95.13
2023-03-29T04:14:08.424Z,94.28
2023-03-29T04:17:08.815Z,93.17
2023-03-29T04:19:50.186Z,93.61
2023-03-29T04:22:21.840Z,92.85
2023-03-29T04:25:08.203Z,93.70
2023-03-29T04:28:10.368Z,92.79
2023-03-29T04:30:46.585Z,92.49
2023-03-29T04:33:21.768Z,92.41
2023-03-29T04:36:08.321Z,92.54
2023-03-29T04:38:43.328Z,91.93
2023-03-29T04:41:55.817Z,91.76
2023-03-29T04:44:28.319Z,90.98
2023-03-29T04:46:58.096Z,90.45
2023-03-29T04:49:26.785Z,90.67
2023-03-29T04:51:56.058Z,90.93
2023-03-29T04:54:27.920Z,91.79
2023-03-29T04:57:02.328Z,92.39
2023-03-29T04:59:39.746Z,92.75
2023-03-29T05:02:46.324Z,92.70
2023-03-29T05:05:19.318Z,91.57
2023-03-29T05:07:48.267Z,88.10
2023-03-29T05:10:53.684Z,86.77
2023-03-29T05:13:51.903Z,84.77
2023-03-29T05:16:23.335Z,84.25
2023-03-29T05:19:04.482Z,83.34
2023-03-29T05:22:41.812Z,78.62
2023-03-29T05:25:23.864Z,77.82
2023-03-29T05:27:52.255Z,77.04
2023-03-29T05:30:27.349Z,75.17
2023-03-29T05:33:41.708Z,69.84
2023-03-29T05:36:18.991Z,70.15
2023-03-29T05:38:52.834Z,72.24
2023-03-29T05:41:25.786Z,72.66
2023-03-29T05:44:35.070Z,73.16
2023-03-29T05:47:28.218Z,72.16
2023-03-29T05:50:10.600Z,71.44
2023-03-29T05:52:44.402Z,71.26
2023-03-29T05:55:26.600Z,71.30
2023-03-29T05:57:55.158Z,71.00
2023-03-29T06:00:27.066Z,70.99
2023-03-29T06:03:23.856Z,70.80
2023-03-29T06:06:02.490Z,71.31
2023-03-29T06:08:50.729Z,70.98
2023-03-29T06:11:52.155Z,70.01
2023-03-29T06:14:42.019Z,69.34
2023-03-29T06:17:20.940Z,68.47
2023-03-29T06:19:51.875Z,68.45
2023-03-29T06:22:24.007Z,67.93
2023-03-29T06:24:52.434Z,67.54
2023-03-29T06:27:28.353Z,66.12
2023-03-29T06:30:02.949Z,65.26
2023-03-29T06:32:36.452Z,64.56
2023-03-29T06:35:27.619Z,63.63
2023-03-29T06:38:35.495Z,63.05
2023-03-29T06:41:50.093Z,62.55
2023-03-29T06:44:36.725Z,61.77
2023-03-29T06:47:16.090Z,62.76
2023-03-29T06:49:45.660Z,62.95
2023-03-29T06:52:40.890Z,62.54
2023-03-29T06:55:25.858Z,61.41
2023-03-29T06:57:57.897Z,60.32
2023-03-29T07:00:30.034Z,60.51
2023-03-29T07:03:28.083Z,60.80
2023-03-29T07:06:12.312Z,60.36
2023-03-29T07:09:02.920Z,61.09
2023-03-29T07:12:09.277Z,61.54
2023-03-29T07:14:59.272Z,62.57
2023-03-29T07:17:57.925Z,61.51
2023-03-29T07:20:30.062Z,61.36
2023-03-29T07:23:25.570Z,61.83
2023-03-29T07:25:54.353Z,60.62
2023-03-29T07:28:22.820Z,59.59
2023-03-29T07:31:03.416Z,59.11
2023-03-29T07:33:34.610Z,60.70
2023-03-29T07:41:19.237Z,59.96
2023-03-29T07:44:22.367Z,61.28
2023-03-29T07:51:46.574Z,60.30
2023-03-29T07:54:17.971Z,59.93
2023-03-29T07:57:36.437Z,58.88
2023-03-29T08:03:49.558Z,57.06
2023-03-29T08:06:32.715Z,56.46
2023-03-29T08:09:07.821Z,56.25
2023-03-29T08:15:30.968Z,57.49
2023-03-29T08:18:02.759Z,56.03
2023-03-29T08:20:32.725Z,56.62
2023-03-29T08:23:06.161Z,57.30
2023-03-29T08:26:44.423Z,55.23
2023-03-29T08:33:44.307Z,57.15
2023-03-29T08:36:58.061Z,57.78
2023-03-29T08:39:55.152Z,57.59
2023-03-29T08:46:37.247Z,57.68
2023-03-29T08:49:26.032Z,56.82
2023-03-29T08:52:31.363Z,56.58
2023-03-29T08:55:32.725Z,56.45
2023-03-29T08:59:26.393Z,56.88
2023-03-29T09:01:57.419Z,58.47
2023-03-29T09:04:57.920Z,58.59
2023-03-29T09:07:54.577Z,56.26
2023-03-29T09:10:39.383Z,49.91
2023-03-29T09:13:48.861Z,48.78
2023-03-29T09:16:58.528Z,48.97
2023-03-29T09:20:51.491Z,49.18
2023-03-29T09:23:55.272Z,48.34
2023-03-29T09:27:21.478Z,48.46
2023-03-29T09:33:58.402Z,48.02
2023-03-29T09:34:31.727Z,48.78
2023-03-29T09:37:45.455Z,47.66
2023-03-29T09:40:44.803Z,49.12
2023-03-29T09:47:19.921Z,48.25
2023-03-29T09:49:54.981Z,50.05
2023-03-29T09:56:01.171Z,51.05
2023-03-29T09:59:12.968Z,51.12
2023-03-29T10:02:03.722Z,51.32
2023-03-29T10:04:32.586Z,52.31
2023-03-29T10:07:03.825Z,53.54
2023-03-29T10:09:32.546Z,52.82
2023-03-29T10:12:13.823Z,51.09
2023-03-29T10:14:56.100Z,48.86
2023-03-29T10:17:28.253Z,47.33
2023-03-29T10:20:21.629Z,47.50
2023-03-29T10:22:56.747Z,48.18
2023-03-29T10:25:31.553Z,48.62
2023-03-29T10:28:39.646Z,49.47
2023-03-29T10:31:10.127Z,48.05
2023-03-29T10:33:58.428Z,48.66
2023-03-29T10:36:36.565Z,48.72
2023-03-29T10:39:06.374Z,47.88
2023-03-29T10:41:54.666Z,47.47
2023-03-29T10:44:54.025Z,48.04
2023-03-29T10:47:22.650Z,48.68
2023-03-29T10:49:57.264Z,47.02
2023-03-29T10:52:36.566Z,46.87
2023-03-29T10:55:14.046Z,46.65
2023-03-29T10:58:11.345Z,46.92
2023-03-29T11:00:51.044Z,47.66
2023-03-29T11:03:45.005Z,47.09
2023-03-29T11:06:37.844Z,45.92
2023-03-29T11:09:36.577Z,45.29
2023-03-29T11:12:30.043Z,42.85
2023-03-29T11:15:29.777Z,43.78
2023-03-29T11:18:22.455Z,45.70
2023-03-29T11:21:06.800Z,45.22
2023-03-29T11:24:05.606Z,45.55
2023-03-29T11:27:13.142Z,45.19
2023-03-29T11:30:09.320Z,44.27
2023-03-29T11:33:33.987Z,43.33
2023-03-29T11:36:46.372Z,44.63
2023-03-29T11:39:40.517Z,43.52
2023-03-29T11:42:32.551Z,43.66
2023-03-29T11:45:05.162Z,43.87
2023-03-29T11:47:45.047Z,45.40
2023-03-29T11:50:26.260Z,43.31
2023-03-29T11:53:00.494Z,42.23
2023-03-29T11:55:33.649Z,41.43
2023-03-29T11:58:24.756Z,42.06
2023-03-29T12:01:18.411Z,40.08
2023-03-29T12:04:02.816Z,38.20
2023-03-29T12:07:51.068Z,35.03
2023-03-29T12:10:48.230Z,38.22
2023-03-29T12:13:22.907Z,40.97
2023-03-29T12:16:02.920Z,41.69
2023-03-29T12:18:45.580Z,41.22
2023-03-29T12:21:18.927Z,39.89
2023-03-29T12:23:48.401Z,40.00
2023-03-29T12:26:35.066Z,37.23
2023-03-29T12:29:29.118Z,37.34
2023-03-29T12:32:00.079Z,38.35
2023-03-29T12:34:50.920Z,34.90
2023-03-29T12:38:11.678Z,34.84
2023-03-29T12:41:03.089Z,36.70
2023-03-29T12:44:11.362Z,36.70
2023-03-29T12:47:42.557Z,36.91
2023-03-29T12:50:28.569Z,37.83
2023-03-29T12:53:04.343Z,38.28
2023-03-29T12:55:50.100Z,32.97
2023-03-29T12:58:24.780Z,33.38
2023-03-29T13:01:09.165Z,34.82
2023-03-29T13:03:40.504Z,33.84
2023-03-29T13:06:13.557Z,33.61
2023-03-29T13:08:44.620Z,33.60
2023-03-29T13:11:33.999Z,34.88
2023-03-29T13:14:13.718Z,34.29
2023-03-29T13:16:43.268Z,34.36
2023-03-29T13:19:34.818Z,35.05
2023-03-29T13:22:25.361Z,34.22
2023-03-29T13:25:10.510Z,35.03
2023-03-29T13:27:47.198Z,35.08
2023-03-29T13:31:09.780Z,35.17
2023-03-29T13:34:25.491Z,36.66
2023-03-29T13:37:23.132Z,39.10
2023-03-29T13:39:54.060Z,40.66
2023-03-29T13:42:36.510Z,40.70
2023-03-29T13:45:23.837Z,41.10
2023-03-29T13:48:05.412Z,41.52
2023-03-29T13:50:54.840Z,41.20
2023-03-29T13:54:00.739Z,41.41
2023-03-29T13:56:43.377Z,38.96
2023-03-29T14:00:22.205Z,37.74
2023-03-29T14:03:02.675Z,38.08
2023-03-29T14:05:35.334Z,38.66
2023-03-29T14:08:24.344Z,38.24
2023-03-29T14:11:00.748Z,37.07
2023-03-29T14:13:58.824Z,37.33
2023-03-29T14:16:40.245Z,37.10
2023-03-29T14:19:19.051Z,37.05
2023-03-29T14:21:53.312Z,37.57
2023-03-29T14:24:27.719Z,36.71
2023-03-29T14:27:07.213Z,36.61
2023-03-29T14:29:36.172Z,36.59
2023-03-29T14:32:11.503Z,36.66
2023-03-29T14:34:40.691Z,36.43
2023-03-29T14:37:26.913Z,35.73
2023-03-29T14:39:56.540Z,34.35
2023-03-29T14:42:31.151Z,35.25
2023-03-29T14:45:18.739Z,35.40
2023-03-29T14:49:17.295Z,34.36
2023-03-29T14:52:03.896Z,33.64
2023-03-29T14:54:34.347Z,34.50
2023-03-29T14:57:07.369Z,34.05
2023-03-29T14:59:42.732Z,34.42
2023-03-29T15:02:29.570Z,34.44
2023-03-29T15:05:04.825Z,34.95
2023-03-29T15:07:35.152Z,35.13
2023-03-29T15:10:06.567Z,34.75
2023-03-29T15:12:37.979Z,34.81
2023-03-29T15:15:12.028Z,34.66
2023-03-29T15:17:53.656Z,33.72
2023-03-29T15:20:38.403Z,31.95
2023-03-29T15:23:22.254Z,32.09
2023-03-29T15:26:10.821Z,32.60
2023-03-29T15:28:46.909Z,33.83
2023-03-29T15:31:20.848Z,33.89
2023-03-29T15:33:49.094Z,33.93
2023-03-29T15:36:17.456Z,33.45
2023-03-29T15:38:50.615Z,34.33
2023-03-29T15:41:18.756Z,35.19
2023-03-29T15:43:46.890Z,35.35
2023-03-29T15:46:16.447Z,34.38
2023-03-29T15:48:44.714Z,34.60
2023-03-29T15:51:13.383Z,33.57
2023-03-29T15:53:43.782Z,34.78
2023-03-29T15:56:17.210Z,35.58
2023-03-29T15:58:46.162Z,36.29
2023-03-29T16:01:37.499Z,36.66
2023-03-29T16:04:17.829Z,36.88
2023-03-29T16:06:49.045Z,37.19
2023-03-29T16:09:19.162Z,36.83
2023-03-29T16:11:48.173Z,37.22
2023-03-29T16:14:27.306Z,37.86
2023-03-29T16:16:55.714Z,38.13
2023-03-29T16:19:25.756Z,38.33
2023-03-29T16:21:54.180Z,38.76
2023-03-29T16:24:25.433Z,38.96
2023-03-29T16:26:55.964Z,39.21
2023-03-29T16:29:25.376Z,39.44
2023-03-29T16:31:53.983Z,39.86
2023-03-29T16:34:22.937Z,40.25
2023-03-29T16:36:53.008Z,40.06
2023-03-29T16:39:21.713Z,40.64
2023-03-29T16:41:52.214Z,40.89
2023-03-29T16:44:23.585Z,41.07
2023-03-29T16:46:58.517Z,41.28
2023-03-29T16:49:26.626Z,41.26
2023-03-29T16:51:54.727Z,41.55
2023-03-29T16:54:25.765Z,42.00
2023-03-29T16:56:53.984Z,42.04
2023-03-29T16:59:22.362Z,42.34
2023-03-29T17:01:52.767Z,42.35
2023-03-29T17:04:21.196Z,42.88
2023-03-29T17:06:49.337Z,42.93
2023-03-29T17:09:17.671Z,43.19
2023-03-29T17:11:46.300Z,43.48
2023-03-29T17:14:14.639Z,43.42
2023-03-29T17:16:42.708Z,43.46
2023-03-29T17:19:11.030Z,43.83
2023-03-29T17:21:41.254Z,43.98
2023-03-29T17:24:10.033Z,44.14
2023-03-29T17:26:38.216Z,44.66
2023-03-29T17:29:06.373Z,44.79
2023-03-29T17:31:36.251Z,44.87
2023-03-29T17:34:20.569Z,45.04
2023-03-29T17:36:48.946Z,45.22
2023-03-29T17:39:18.875Z,45.59
2023-03-29T17:41:49.394Z,45.64
2023-03-29T17:44:18.625Z,45.94
2023-03-29T17:46:46.798Z,47.44
2023-03-29T17:49:16.430Z,47.73
2023-03-29T17:51:44.761Z,48.42
2023-03-29T17:54:13.079Z,48.98
2023-03-29T17:56:41.424Z,49.63
2023-03-29T17:59:09.707Z,49.63
2023-03-29T18:01:39.278Z,49.48
2023-03-29T18:04:10.394Z,49.56
2023-03-29T18:06:38.423Z,49.57
2023-03-29T18:09:06.878Z,50.21
2023-03-29T18:11:36.496Z,50.32
2023-03-29T18:14:05.403Z,50.10
2023-03-29T18:16:33.849Z,50.32
2023-03-29T18:19:02.168Z,50.60
2023-03-29T18:21:30.325Z,50.85
2023-03-29T18:23:58.501Z,51.38
2023-03-29T18:26:28.587Z,51.76
2023-03-29T18:28:59.298Z,51.81
2023-03-29T18:31:29.427Z,51.91
2023-03-29T18:33:57.508Z,51.95
2023-03-29T18:36:25.866Z,52.58
2023-03-29T18:38:55.828Z,53.48
2023-03-29T18:41:24.006Z,54.57
2023-03-29T18:44:05.719Z,54.55
2023-03-29T18:46:36.556Z,54.74
2023-03-29T18:49:04.927Z,54.74
2023-03-29T18:51:34.366Z,55.32
2023-03-29T18:54:04.293Z,55.01
2023-03-29T18:56:32.392Z,55.09
2023-03-29T18:59:05.180Z,54.92
2023-03-29T19:01:33.556Z,54.90
2023-03-29T19:04:01.813Z,54.85
2023-03-29T19:06:30.555Z,54.92
2023-03-29T19:09:02.075Z,54.95
2023-03-29T19:11:31.651Z,55.09
2023-03-29T19:14:03.255Z,55.38
2023-03-29T19:16:34.343Z,55.64
2023-03-29T19:19:02.511Z,55.67
2023-03-29T19:21:32.346Z,55.81
2023-03-29T19:24:05.118Z,55.81
2023-03-29T19:26:33.818Z,56.03
2023-03-29T19:29:01.803Z,56.35
2023-03-29T19:31:30.106Z,56.37
2023-03-29T19:33:58.346Z,57.32
2023-03-29T19:36:26.586Z,57.27
2023-03-29T19:38:58.544Z,57.22
2023-03-29T19:41:26.907Z,57.34
2023-03-29T19:43:55.110Z,57.58
2023-03-29T19:46:29.183Z,57.85
2023-03-29T19:49:05.639Z,57.89
2023-03-29T19:51:35.703Z,57.84
2023-03-29T19:54:10.119Z,57.95
2023-03-29T19:56:38.422Z,57.92
2023-03-29T19:59:13.668Z,58.03
2023-03-29T20:01:51.240Z,57.96
2023-03-29T20:04:27.639Z,57.99
2023-03-29T20:06:59.492Z,58.19
2023-03-29T20:09:27.547Z,58.31
2023-03-29T20:11:55.691Z,58.88
2023-03-29T20:14:23.783Z,58.76
2023-03-29T20:16:55.339Z,58.63
2023-03-29T20:19:26.870Z,58.62
2023-03-29T20:21:57.468Z,58.80
2023-03-29T20:24:32.807Z,58.71
2023-03-29T20:27:01.817Z,58.88
2023-03-29T20:29:39.609Z,58.51
2023-03-29T20:32:09.317Z,58.22
2023-03-29T20:34:37.718Z,58.11
2023-03-29T20:37:06.444Z,57.86
2023-03-29T20:39:36.538Z,57.77
2023-03-29T20:42:06.545Z,58.03
2023-03-29T20:44:35.469Z,57.99
2023-03-29T20:47:15.612Z,57.47
2023-03-29T20:49:44.060Z,57.37
2023-03-29T20:52:17.111Z,57.34
2023-03-29T20:54:45.993Z,57.23
2023-03-29T20:57:16.430Z,57.22
2023-03-29T20:59:46.039Z,57.32
2023-03-29T21:02:20.968Z,57.31
2023-03-29T21:04:54.009Z,57.12
2023-03-29T21:07:32.822Z,57.07
2023-03-29T21:10:02.851Z,56.95
2023-03-29T21:12:32.381Z,57.34
2023-03-29T21:15:02.564Z,57.57
2023-03-29T21:17:33.853Z,57.10
2023-03-29T21:20:02.962Z,56.97
2023-03-29T21:22:31.620Z,57.26
2023-03-29T21:25:04.429Z,57.39
2023-03-29T21:27:34.527Z,57.40
2023-03-29T21:30:04.193Z,57.60
2023-03-29T21:32:32.454Z,57.55
2023-03-29T21:35:03.103Z,57.74
2023-03-29T21:37:37.028Z,57.82
2023-03-29T21:40:12.710Z,58.00
2023-03-29T21:42:40.838Z,58.16
2023-03-29T21:45:09.971Z,58.27
2023-03-29T21:47:40.764Z,58.23
2023-03-29T21:50:09.557Z,58.63
2023-03-29T21:52:59.306Z,58.81
2023-03-29T21:55:52.387Z,59.13
2023-03-29T21:58:21.216Z,59.29
2023-03-29T22:00:49.457Z,59.37
2023-03-29T22:03:17.798Z,59.82
2023-03-29T22:05:57.091Z,60.50
2023-03-29T22:08:26.573Z,60.53
2023-03-29T22:10:57.031Z,60.88
2023-03-29T22:13:28.294Z,60.87
2023-03-29T22:16:00.439Z,60.92
2023-03-29T22:18:42.450Z,61.08
2023-03-29T22:21:13.945Z,61.43
2023-03-29T22:23:43.824Z,61.72
2023-03-29T22:26:13.734Z,61.95
2023-03-29T22:28:41.976Z,61.98
2023-03-29T22:31:16.569Z,62.16
2023-03-29T22:33:50.060Z,62.41
2023-03-29T22:36:28.598Z,62.63
2023-03-29T22:38:57.523Z,63.07
2023-03-29T22:41:27.703Z,63.60
2023-03-29T22:43:58.120Z,63.64
2023-03-29T22:46:26.460Z,63.83
2023-03-29T22:48:54.442Z,63.85
2023-03-29T22:51:22.499Z,63.98
2023-03-29T22:53:50.762Z,64.44
2023-03-29T22:56:18.821Z,64.83
2023-03-29T22:58:46.777Z,64.80
2023-03-29T23:01:14.839Z,64.76
2023-03-29T23:03:42.852Z,64.96
2023-03-29T23:06:11.009Z,65.28
2023-03-29T23:08:39.146Z,65.19
2023-03-29T23:11:07.587Z,65.85
2023-03-29T23:13:35.859Z,65.61
2023-03-29T23:16:04.964Z,66.06
2023-03-29T23:18:34.885Z,66.29
2023-03-29T23:21:06.145Z,66.59
2023-03-29T23:23:35.284Z,67.15
2023-03-29T23:26:04.992Z,67.57
2023-03-29T23:28:34.852Z,67.43
2023-03-29T23:31:10.309Z,68.13
2023-03-29T23:33:43.018Z,68.27
2023-03-29T23:36:17.164Z,69.18
2023-03-29T23:38:47.024Z,69.49
2023-03-29T23:41:16.891Z,69.59
2023-03-29T23:43:47.243Z,70.15
2023-03-29T23:46:18.999Z,69.98
2023-03-29T23:48:49.380Z,70.24
2023-03-29T23:51:22.615Z,70.18
2023-03-29T23:53:51.807Z,70.71
2023-03-29T23:56:21.563Z,70.41
2023-03-29T23:58:49.948Z,70.81
